sensor_id;sensor_type;location;lat;lon;timestamp;P1;durP1;ratioP1;P2;durP2;ratioP2
25263;SDS011;13211;51.796;5.808;2022-11-20T00:01:32;35.63;;;15.52;;
25263;SDS011;13211;51.796;5.808;2022-11-20T00:04:00;31.70;;;15.48;;
25263;SDS011;13211;51.796;5.808;2022-11-20T00:06:35;32.13;;;15.73;;
25263;SDS011;13211;51.796;5.808;2022-11-20T00:09:03;39.20;;;18.20;;
25263;SDS011;13211;51.796;5.808;2022-11-20T00:11:32;37.50;;;17.63;;
25263;SDS011;13211;51.796;5.808;2022-11-20T00:14:00;42.20;;;18.85;;
25263;SDS011;13211;51.796;5.808;2022-11-20T00:16:30;39.20;;;16.85;;
25263;SDS011;13211;51.796;5.808;2022-11-20T00:18:59;50.45;;;21.55;;
25263;SDS011;13211;51.796;5.808;2022-11-20T00:21:29;39.60;;;19.20;;
25263;SDS011;13211;51.796;5.808;2022-11-20T00:23:58;41.88;;;20.00;;
25263;SDS011;13211;51.796;5.808;2022-11-20T00:26:26;39.80;;;18.85;;
25263;SDS011;13211;51.796;5.808;2022-11-20T00:28:54;37.35;;;17.38;;
25263;SDS011;13211;51.796;5.808;2022-11-20T00:31:24;35.03;;;17.55;;
25263;SDS011;13211;51.796;5.808;2022-11-20T00:33:53;43.13;;;20.15;;
25263;SDS011;13211;51.796;5.808;2022-11-20T00:36:21;39.35;;;19.38;;
25263;SDS011;13211;51.796;5.808;2022-11-20T00:38:51;46.38;;;24.20;;
25263;SDS011;13211;51.796;5.808;2022-11-20T00:41:18;46.53;;;23.08;;
25263;SDS011;13211;51.796;5.808;2022-11-20T00:43:46;41.28;;;20.55;;
25263;SDS011;13211;51.796;5.808;2022-11-20T00:46:15;37.83;;;18.58;;
25263;SDS011;13211;51.796;5.808;2022-11-20T00:48:43;36.70;;;17.38;;
25263;SDS011;13211;51.796;5.808;2022-11-20T00:51:12;36.58;;;16.85;;
25263;SDS011;13211;51.796;5.808;2022-11-20T00:53:40;29.20;;;15.88;;
25263;SDS011;13211;51.796;5.808;2022-11-20T00:56:12;35.08;;;16.80;;
25263;SDS011;13211;51.796;5.808;2022-11-20T00:58:40;33.70;;;15.32;;
25263;SDS011;13211;51.796;5.808;2022-11-20T01:14:03;36.50;;;18.88;;
25263;SDS011;13211;51.796;5.808;2022-11-20T01:16:32;30.20;;;16.17;;
25263;SDS011;13211;51.796;5.808;2022-11-20T01:19:03;30.17;;;15.10;;
25263;SDS011;13211;51.796;5.808;2022-11-20T01:21:34;31.30;;;16.17;;
25263;SDS011;13211;51.796;5.808;2022-11-20T01:24:04;32.50;;;15.18;;
25263;SDS011;13211;51.796;5.808;2022-11-20T01:26:33;31.13;;;15.90;;
25263;SDS011;13211;51.796;5.808;2022-11-20T01:29:04;31.05;;;14.80;;
25263;SDS011;13211;51.796;5.808;2022-11-20T01:31:36;32.33;;;15.77;;
25263;SDS011;13211;51.796;5.808;2022-11-20T01:34:05;31.85;;;15.02;;
25263;SDS011;13211;51.796;5.808;2022-11-20T01:36:33;32.72;;;15.60;;
25263;SDS011;13211;51.796;5.808;2022-11-20T01:39:04;31.63;;;14.57;;
25263;SDS011;13211;51.796;5.808;2022-11-20T01:41:33;27.63;;;14.02;;
25263;SDS011;13211;51.796;5.808;2022-11-20T01:44:49;29.48;;;14.63;;
25263;SDS011;13211;51.796;5.808;2022-11-20T01:47:12;33.67;;;14.65;;
25263;SDS011;13211;51.796;5.808;2022-11-20T01:49:42;32.53;;;15.70;;
25263;SDS011;13211;51.796;5.808;2022-11-20T01:52:29;28.75;;;15.40;;
25263;SDS011;13211;51.796;5.808;2022-11-20T01:55:00;34.33;;;16.45;;
25263;SDS011;13211;51.796;5.808;2022-11-20T01:57:30;32.95;;;15.80;;
25263;SDS011;13211;51.796;5.808;2022-11-20T02:00:02;35.27;;;16.27;;
25263;SDS011;13211;51.796;5.808;2022-11-20T02:02:39;30.70;;;15.18;;
25263;SDS011;13211;51.796;5.808;2022-11-20T02:05:11;32.88;;;15.73;;
25263;SDS011;13211;51.796;5.808;2022-11-20T02:07:50;33.92;;;15.93;;
25263;SDS011;13211;51.796;5.808;2022-11-20T02:10:21;31.63;;;15.93;;
25263;SDS011;13211;51.796;5.808;2022-11-20T02:12:48;36.65;;;16.70;;
25263;SDS011;13211;51.796;5.808;2022-11-20T02:15:36;34.63;;;16.70;;
25263;SDS011;13211;51.796;5.808;2022-11-20T02:18:04;31.55;;;15.25;;
25263;SDS011;13211;51.796;5.808;2022-11-20T02:20:32;33.50;;;16.35;;
25263;SDS011;13211;51.796;5.808;2022-11-20T02:25:29;34.90;;;16.20;;
25263;SDS011;13211;51.796;5.808;2022-11-20T02:27:59;33.50;;;16.48;;
25263;SDS011;13211;51.796;5.808;2022-11-20T02:30:35;36.75;;;15.88;;
25263;SDS011;13211;51.796;5.808;2022-11-20T02:33:03;29.98;;;14.55;;
25263;SDS011;13211;51.796;5.808;2022-11-20T02:38:00;35.15;;;16.40;;
25263;SDS011;13211;51.796;5.808;2022-11-20T02:40:30;32.92;;;16.50;;
25263;SDS011;13211;51.796;5.808;2022-11-20T02:42:59;33.72;;;15.75;;
25263;SDS011;13211;51.796;5.808;2022-11-20T02:47:57;35.55;;;16.13;;
25263;SDS011;13211;51.796;5.808;2022-11-20T02:50:26;32.58;;;15.73;;
25263;SDS011;13211;51.796;5.808;2022-11-20T02:52:54;34.25;;;15.95;;
25263;SDS011;13211;51.796;5.808;2022-11-20T02:55:22;36.38;;;17.25;;
25263;SDS011;13211;51.796;5.808;2022-11-20T02:57:50;35.78;;;16.88;;
25263;SDS011;13211;51.796;5.808;2022-11-20T03:00:17;33.58;;;16.40;;
25263;SDS011;13211;51.796;5.808;2022-11-20T03:02:46;30.83;;;15.25;;
25263;SDS011;13211;51.796;5.808;2022-11-20T03:05:14;32.30;;;15.75;;
25263;SDS011;13211;51.796;5.808;2022-11-20T03:07:43;34.20;;;15.40;;
25263;SDS011;13211;51.796;5.808;2022-11-20T03:10:10;31.15;;;14.48;;
25263;SDS011;13211;51.796;5.808;2022-11-20T03:12:39;30.52;;;14.95;;
25263;SDS011;13211;51.796;5.808;2022-11-20T03:15:06;28.27;;;14.20;;
25263;SDS011;13211;51.796;5.808;2022-11-20T03:17:34;32.80;;;16.40;;
25263;SDS011;13211;51.796;5.808;2022-11-20T03:20:04;32.88;;;15.25;;
25263;SDS011;13211;51.796;5.808;2022-11-20T03:22:32;35.17;;;15.98;;
25263;SDS011;13211;51.796;5.808;2022-11-20T03:25:03;31.42;;;15.65;;
25263;SDS011;13211;51.796;5.808;2022-11-20T03:27:33;30.42;;;15.23;;
25263;SDS011;13211;51.796;5.808;2022-11-20T03:30:03;38.13;;;15.02;;
25263;SDS011;13211;51.796;5.808;2022-11-20T03:32:32;34.97;;;15.20;;
25263;SDS011;13211;51.796;5.808;2022-11-20T03:35:00;33.75;;;15.43;;
25263;SDS011;13211;51.796;5.808;2022-11-20T03:37:30;26.92;;;14.52;;
25263;SDS011;13211;51.796;5.808;2022-11-20T03:39:59;31.35;;;15.27;;
25263;SDS011;13211;51.796;5.808;2022-11-20T03:42:29;29.70;;;14.77;;
25263;SDS011;13211;51.796;5.808;2022-11-20T03:45:18;33.42;;;15.50;;
25263;SDS011;13211;51.796;5.808;2022-11-20T03:47:46;32.63;;;15.68;;
25263;SDS011;13211;51.796;5.808;2022-11-20T03:50:13;31.67;;;15.80;;
25263;SDS011;13211;51.796;5.808;2022-11-20T03:52:41;34.05;;;15.13;;
25263;SDS011;13211;51.796;5.808;2022-11-20T03:55:09;35.70;;;16.27;;
25263;SDS011;13211;51.796;5.808;2022-11-20T03:57:37;36.33;;;17.52;;
25263;SDS011;13211;51.796;5.808;2022-11-20T04:00:05;31.45;;;15.65;;
25263;SDS011;13211;51.796;5.808;2022-11-20T04:02:33;33.08;;;15.82;;
25263;SDS011;13211;51.796;5.808;2022-11-20T04:05:03;35.50;;;16.00;;
25263;SDS011;13211;51.796;5.808;2022-11-20T04:07:33;42.60;;;16.47;;
25263;SDS011;13211;51.796;5.808;2022-11-20T04:12:33;32.10;;;14.98;;
25263;SDS011;13211;51.796;5.808;2022-11-20T04:15:01;31.70;;;15.55;;
25263;SDS011;13211;51.796;5.808;2022-11-20T04:17:30;33.72;;;15.18;;
25263;SDS011;13211;51.796;5.808;2022-11-20T04:19:59;31.52;;;14.85;;
25263;SDS011;13211;51.796;5.808;2022-11-20T04:22:28;32.17;;;15.43;;
25263;SDS011;13211;51.796;5.808;2022-11-20T04:24:55;36.08;;;15.88;;
25263;SDS011;13211;51.796;5.808;2022-11-20T04:27:24;34.75;;;16.00;;
25263;SDS011;13211;51.796;5.808;2022-11-20T04:29:51;33.95;;;15.98;;
25263;SDS011;13211;51.796;5.808;2022-11-20T04:32:22;35.03;;;15.82;;
25263;SDS011;13211;51.796;5.808;2022-11-20T04:34:50;34.63;;;16.05;;
25263;SDS011;13211;51.796;5.808;2022-11-20T04:37:18;32.65;;;15.38;;
25263;SDS011;13211;51.796;5.808;2022-11-20T04:39:46;34.28;;;15.15;;
25263;SDS011;13211;51.796;5.808;2022-11-20T04:42:13;31.75;;;15.27;;
25263;SDS011;13211;51.796;5.808;2022-11-20T04:44:57;30.23;;;14.07;;
25263;SDS011;13211;51.796;5.808;2022-11-20T04:47:25;33.47;;;15.00;;
25263;SDS011;13211;51.796;5.808;2022-11-20T04:49:53;31.20;;;15.27;;
25263;SDS011;13211;51.796;5.808;2022-11-20T04:52:23;29.08;;;14.30;;
25263;SDS011;13211;51.796;5.808;2022-11-20T04:54:51;33.00;;;15.18;;
25263;SDS011;13211;51.796;5.808;2022-11-20T04:57:19;33.28;;;16.08;;
25263;SDS011;13211;51.796;5.808;2022-11-20T04:59:50;35.17;;;15.70;;
25263;SDS011;13211;51.796;5.808;2022-11-20T05:02:18;33.70;;;15.10;;
25263;SDS011;13211;51.796;5.808;2022-11-20T05:04:46;33.85;;;14.55;;
25263;SDS011;13211;51.796;5.808;2022-11-20T05:07:14;32.03;;;15.18;;
25263;SDS011;13211;51.796;5.808;2022-11-20T05:09:43;32.00;;;14.63;;
25263;SDS011;13211;51.796;5.808;2022-11-20T05:12:12;30.58;;;14.00;;
25263;SDS011;13211;51.796;5.808;2022-11-20T05:14:40;30.20;;;13.85;;
25263;SDS011;13211;51.796;5.808;2022-11-20T05:17:12;35.45;;;15.13;;
25263;SDS011;13211;51.796;5.808;2022-11-20T05:19:39;31.58;;;14.52;;
25263;SDS011;13211;51.796;5.808;2022-11-20T05:22:07;28.85;;;14.23;;
25263;SDS011;13211;51.796;5.808;2022-11-20T05:24:35;31.98;;;14.13;;
25263;SDS011;13211;51.796;5.808;2022-11-20T05:27:02;29.40;;;14.65;;
25263;SDS011;13211;51.796;5.808;2022-11-20T05:29:30;34.47;;;14.10;;
25263;SDS011;13211;51.796;5.808;2022-11-20T05:32:03;30.30;;;14.10;;
25263;SDS011;13211;51.796;5.808;2022-11-20T05:34:33;29.10;;;14.13;;
25263;SDS011;13211;51.796;5.808;2022-11-20T05:37:02;30.25;;;14.48;;
25263;SDS011;13211;51.796;5.808;2022-11-20T05:39:30;28.90;;;13.05;;
25263;SDS011;13211;51.796;5.808;2022-11-20T05:44:48;27.80;;;13.25;;
25263;SDS011;13211;51.796;5.808;2022-11-20T05:47:15;32.85;;;13.77;;
25263;SDS011;13211;51.796;5.808;2022-11-20T05:49:44;30.15;;;14.93;;
25263;SDS011;13211;51.796;5.808;2022-11-20T05:52:11;30.23;;;14.65;;
25263;SDS011;13211;51.796;5.808;2022-11-20T05:54:39;32.08;;;14.25;;
25263;SDS011;13211;51.796;5.808;2022-11-20T05:57:07;32.67;;;15.05;;
25263;SDS011;13211;51.796;5.808;2022-11-20T05:59:34;32.33;;;14.55;;
25263;SDS011;13211;51.796;5.808;2022-11-20T06:02:03;30.38;;;13.20;;
25263;SDS011;13211;51.796;5.808;2022-11-20T06:04:32;28.70;;;14.07;;
25263;SDS011;13211;51.796;5.808;2022-11-20T06:07:00;34.15;;;14.18;;
25263;SDS011;13211;51.796;5.808;2022-11-20T06:09:29;28.55;;;14.38;;
25263;SDS011;13211;51.796;5.808;2022-11-20T06:11:57;27.48;;;13.48;;
25263;SDS011;13211;51.796;5.808;2022-11-20T06:14:29;29.25;;;13.50;;
25263;SDS011;13211;51.796;5.808;2022-11-20T06:16:57;31.52;;;14.00;;
25263;SDS011;13211;51.796;5.808;2022-11-20T06:19:25;33.22;;;14.27;;
25263;SDS011;13211;51.796;5.808;2022-11-20T06:21:53;31.92;;;14.57;;
25263;SDS011;13211;51.796;5.808;2022-11-20T06:24:20;31.08;;;14.18;;
25263;SDS011;13211;51.796;5.808;2022-11-20T06:26:48;28.23;;;13.23;;
25263;SDS011;13211;51.796;5.808;2022-11-20T06:29:16;28.08;;;14.43;;
25263;SDS011;13211;51.796;5.808;2022-11-20T06:31:43;28.00;;;13.73;;
25263;SDS011;13211;51.796;5.808;2022-11-20T06:34:11;30.00;;;14.90;;
25263;SDS011;13211;51.796;5.808;2022-11-20T06:36:40;36.13;;;16.23;;
25263;SDS011;13211;51.796;5.808;2022-11-20T06:39:08;30.17;;;14.02;;
25263;SDS011;13211;51.796;5.808;2022-11-20T06:41:36;37.15;;;16.00;;
25263;SDS011;13211;51.796;5.808;2022-11-20T06:44:07;68.22;;;24.17;;
25263;SDS011;13211;51.796;5.808;2022-11-20T06:46:35;52.40;;;20.90;;
25263;SDS011;13211;51.796;5.808;2022-11-20T06:49:02;55.92;;;21.25;;
25263;SDS011;13211;51.796;5.808;2022-11-20T06:51:30;73.53;;;25.77;;
25263;SDS011;13211;51.796;5.808;2022-11-20T06:53:58;97.97;;;31.70;;
25263;SDS011;13211;51.796;5.808;2022-11-20T06:56:28;95.93;;;29.65;;
25263;SDS011;13211;51.796;5.808;2022-11-20T06:58:56;96.30;;;28.63;;
25263;SDS011;13211;51.796;5.808;2022-11-20T07:01:23;95.25;;;29.63;;
25263;SDS011;13211;51.796;5.808;2022-11-20T07:03:51;88.40;;;28.48;;
25263;SDS011;13211;51.796;5.808;2022-11-20T07:06:20;97.25;;;30.05;;
25263;SDS011;13211;51.796;5.808;2022-11-20T07:08:49;100.38;;;30.70;;
25263;SDS011;13211;51.796;5.808;2022-11-20T07:13:45;66.72;;;23.27;;
25263;SDS011;13211;51.796;5.808;2022-11-20T07:16:13;65.10;;;22.27;;
25263;SDS011;13211;51.796;5.808;2022-11-20T07:18:40;59.20;;;22.08;;
25263;SDS011;13211;51.796;5.808;2022-11-20T07:21:15;42.72;;;18.45;;
25263;SDS011;13211;51.796;5.808;2022-11-20T07:23:43;41.13;;;17.63;;
25263;SDS011;13211;51.796;5.808;2022-11-20T07:26:11;39.60;;;16.05;;
25263;SDS011;13211;51.796;5.808;2022-11-20T07:28:38;36.15;;;16.65;;
25263;SDS011;13211;51.796;5.808;2022-11-20T07:31:06;35.97;;;16.60;;
25263;SDS011;13211;51.796;5.808;2022-11-20T07:33:34;34.38;;;15.63;;
25263;SDS011;13211;51.796;5.808;2022-11-20T07:38:33;32.72;;;14.82;;
25263;SDS011;13211;51.796;5.808;2022-11-20T07:41:00;35.40;;;15.27;;
25263;SDS011;13211;51.796;5.808;2022-11-20T07:43:29;37.05;;;16.52;;
25263;SDS011;13211;51.796;5.808;2022-11-20T07:46:06;37.17;;;16.52;;
25263;SDS011;13211;51.796;5.808;2022-11-20T07:48:34;34.95;;;16.17;;
25263;SDS011;13211;51.796;5.808;2022-11-20T07:51:02;43.50;;;18.52;;
25263;SDS011;13211;51.796;5.808;2022-11-20T07:53:30;47.72;;;19.08;;
25263;SDS011;13211;51.796;5.808;2022-11-20T07:55:59;37.92;;;18.02;;
25263;SDS011;13211;51.796;5.808;2022-11-20T07:58:30;37.88;;;17.52;;
25263;SDS011;13211;51.796;5.808;2022-11-20T08:01:05;42.70;;;18.70;;
25263;SDS011;13211;51.796;5.808;2022-11-20T08:03:34;34.30;;;17.85;;
25263;SDS011;13211;51.796;5.808;2022-11-20T08:06:04;36.92;;;18.35;;
25263;SDS011;13211;51.796;5.808;2022-11-20T08:08:32;39.03;;;17.70;;
25263;SDS011;13211;51.796;5.808;2022-11-20T08:11:06;39.92;;;19.00;;
25263;SDS011;13211;51.796;5.808;2022-11-20T08:13:53;41.55;;;19.50;;
25263;SDS011;13211;51.796;5.808;2022-11-20T08:16:45;40.65;;;18.17;;
25263;SDS011;13211;51.796;5.808;2022-11-20T08:19:16;44.63;;;19.48;;
25263;SDS011;13211;51.796;5.808;2022-11-20T08:21:45;43.55;;;20.13;;
25263;SDS011;13211;51.796;5.808;2022-11-20T08:24:14;40.60;;;19.50;;
25263;SDS011;13211;51.796;5.808;2022-11-20T08:26:42;41.05;;;19.75;;
25263;SDS011;13211;51.796;5.808;2022-11-20T08:29:09;39.15;;;19.35;;
25263;SDS011;13211;51.796;5.808;2022-11-20T08:31:37;40.90;;;20.25;;
25263;SDS011;13211;51.796;5.808;2022-11-20T08:34:05;41.00;;;20.23;;
25263;SDS011;13211;51.796;5.808;2022-11-20T08:36:35;47.40;;;21.65;;
25263;SDS011;13211;51.796;5.808;2022-11-20T08:39:03;41.90;;;20.80;;
25263;SDS011;13211;51.796;5.808;2022-11-20T08:41:32;46.42;;;21.38;;
25263;SDS011;13211;51.796;5.808;2022-11-20T08:44:01;45.08;;;20.48;;
25263;SDS011;13211;51.796;5.808;2022-11-20T08:46:33;43.35;;;21.08;;
25263;SDS011;13211;51.796;5.808;2022-11-20T08:49:08;40.00;;;20.02;;
25263;SDS011;13211;51.796;5.808;2022-11-20T08:51:37;50.92;;;21.60;;
25263;SDS011;13211;51.796;5.808;2022-11-20T08:54:06;45.75;;;22.00;;
25263;SDS011;13211;51.796;5.808;2022-11-20T08:56:34;45.60;;;21.58;;
25263;SDS011;13211;51.796;5.808;2022-11-20T08:59:03;66.70;;;25.77;;
25263;SDS011;13211;51.796;5.808;2022-11-20T09:01:51;75.53;;;27.65;;
25263;SDS011;13211;51.796;5.808;2022-11-20T09:04:19;66.72;;;25.63;;
25263;SDS011;13211;51.796;5.808;2022-11-20T09:06:50;52.60;;;25.08;;
25263;SDS011;13211;51.796;5.808;2022-11-20T09:09:18;47.17;;;22.42;;
25263;SDS011;13211;51.796;5.808;2022-11-20T09:11:46;51.53;;;23.27;;
25263;SDS011;13211;51.796;5.808;2022-11-20T09:14:16;48.10;;;22.42;;
25263;SDS011;13211;51.796;5.808;2022-11-20T09:16:44;44.63;;;22.52;;
25263;SDS011;13211;51.796;5.808;2022-11-20T09:19:13;47.40;;;22.45;;
25263;SDS011;13211;51.796;5.808;2022-11-20T09:22:04;48.08;;;22.77;;
25263;SDS011;13211;51.796;5.808;2022-11-20T09:24:32;46.88;;;23.30;;
25263;SDS011;13211;51.796;5.808;2022-11-20T09:27:03;43.30;;;21.85;;
25263;SDS011;13211;51.796;5.808;2022-11-20T09:29:35;50.28;;;22.55;;
25263;SDS011;13211;51.796;5.808;2022-11-20T09:32:04;42.17;;;21.20;;
25263;SDS011;13211;51.796;5.808;2022-11-20T09:34:32;44.55;;;22.50;;
25263;SDS011;13211;51.796;5.808;2022-11-20T09:37:00;50.72;;;22.75;;
25263;SDS011;13211;51.796;5.808;2022-11-20T09:39:33;43.72;;;23.23;;
25263;SDS011;13211;51.796;5.808;2022-11-20T09:42:09;47.85;;;23.77;;
25263;SDS011;13211;51.796;5.808;2022-11-20T09:44:54;42.75;;;22.13;;
25263;SDS011;13211;51.796;5.808;2022-11-20T09:55:38;47.85;;;24.05;;
25263;SDS011;13211;51.796;5.808;2022-11-20T09:58:14;52.08;;;23.85;;
25263;SDS011;13211;51.796;5.808;2022-11-20T10:00:43;48.53;;;25.30;;
25263;SDS011;13211;51.796;5.808;2022-11-20T10:03:31;42.47;;;22.80;;
25263;SDS011;13211;51.796;5.808;2022-11-20T10:06:03;45.97;;;24.08;;
25263;SDS011;13211;51.796;5.808;2022-11-20T10:11:07;45.92;;;22.92;;
25263;SDS011;13211;51.796;5.808;2022-11-20T10:16:18;40.58;;;21.77;;
25263;SDS011;13211;51.796;5.808;2022-11-20T10:19:13;47.58;;;22.77;;
25263;SDS011;13211;51.796;5.808;2022-11-20T10:29:34;42.75;;;22.65;;
25263;SDS011;13211;51.796;5.808;2022-11-20T10:32:04;44.92;;;23.13;;
25263;SDS011;13211;51.796;5.808;2022-11-20T10:34:47;42.80;;;23.48;;
25263;SDS011;13211;51.796;5.808;2022-11-20T10:37:19;42.72;;;22.40;;
25263;SDS011;13211;51.796;5.808;2022-11-20T10:39:51;49.00;;;23.13;;
25263;SDS011;13211;51.796;5.808;2022-11-20T10:45:11;49.35;;;24.60;;
25263;SDS011;13211;51.796;5.808;2022-11-20T10:47:45;47.78;;;24.83;;
25263;SDS011;13211;51.796;5.808;2022-11-20T10:50:14;45.55;;;24.63;;
25263;SDS011;13211;51.796;5.808;2022-11-20T10:58:30;46.47;;;24.50;;
25263;SDS011;13211;51.796;5.808;2022-11-20T11:03:32;44.47;;;23.08;;
25263;SDS011;13211;51.796;5.808;2022-11-20T11:06:03;48.40;;;24.20;;
25263;SDS011;13211;51.796;5.808;2022-11-20T11:08:39;50.97;;;25.52;;
25263;SDS011;13211;51.796;5.808;2022-11-20T11:11:27;49.38;;;24.23;;
25263;SDS011;13211;51.796;5.808;2022-11-20T11:16:35;50.92;;;25.20;;
25263;SDS011;13211;51.796;5.808;2022-11-20T11:19:05;49.53;;;26.38;;
25263;SDS011;13211;51.796;5.808;2022-11-20T11:21:33;47.80;;;25.08;;
25263;SDS011;13211;51.796;5.808;2022-11-20T11:24:01;50.35;;;24.92;;
25263;SDS011;13211;51.796;5.808;2022-11-20T11:26:53;49.70;;;24.73;;
25263;SDS011;13211;51.796;5.808;2022-11-20T11:29:22;56.75;;;26.38;;
25263;SDS011;13211;51.796;5.808;2022-11-20T11:32:02;49.42;;;25.33;;
25263;SDS011;13211;51.796;5.808;2022-11-20T11:34:34;50.97;;;26.00;;
25263;SDS011;13211;51.796;5.808;2022-11-20T11:37:02;51.28;;;27.23;;
25263;SDS011;13211;51.796;5.808;2022-11-20T11:39:34;60.15;;;28.73;;
25263;SDS011;13211;51.796;5.808;2022-11-20T11:42:02;60.17;;;28.60;;
25263;SDS011;13211;51.796;5.808;2022-11-20T11:44:31;55.45;;;27.63;;
25263;SDS011;13211;51.796;5.808;2022-11-20T11:47:22;56.13;;;26.92;;
25263;SDS011;13211;51.796;5.808;2022-11-20T11:55:05;55.40;;;26.38;;
25263;SDS011;13211;51.796;5.808;2022-11-20T12:00:10;58.83;;;26.92;;
25263;SDS011;13211;51.796;5.808;2022-11-20T12:02:46;59.33;;;27.48;;
25263;SDS011;13211;51.796;5.808;2022-11-20T12:16:33;71.30;;;28.52;;
25263;SDS011;13211;51.796;5.808;2022-11-20T12:19:02;66.38;;;28.83;;
25263;SDS011;13211;51.796;5.808;2022-11-20T12:21:38;64.93;;;28.95;;
25263;SDS011;13211;51.796;5.808;2022-11-20T12:26:51;70.25;;;28.65;;
25263;SDS011;13211;51.796;5.808;2022-11-20T12:37:30;55.55;;;28.25;;
25263;SDS011;13211;51.796;5.808;2022-11-20T12:42:59;63.53;;;27.65;;
25263;SDS011;13211;51.796;5.808;2022-11-20T12:51:18;67.85;;;27.27;;
25263;SDS011;13211;51.796;5.808;2022-11-20T12:54:02;58.47;;;27.40;;
25263;SDS011;13211;51.796;5.808;2022-11-20T13:01:46;61.67;;;29.77;;
25263;SDS011;13211;51.796;5.808;2022-11-20T13:06:48;64.80;;;29.25;;
25263;SDS011;13211;51.796;5.808;2022-11-20T13:09:16;66.28;;;28.42;;
25263;SDS011;13211;51.796;5.808;2022-11-20T13:19:20;61.15;;;27.80;;
25263;SDS011;13211;51.796;5.808;2022-11-20T13:21:49;59.47;;;27.40;;
25263;SDS011;13211;51.796;5.808;2022-11-20T13:29:28;55.78;;;27.05;;
25263;SDS011;13211;51.796;5.808;2022-11-20T13:32:13;58.92;;;28.67;;
25263;SDS011;13211;51.796;5.808;2022-11-20T13:34:51;64.07;;;28.65;;
25263;SDS011;13211;51.796;5.808;2022-11-20T13:37:26;58.53;;;27.23;;
25263;SDS011;13211;51.796;5.808;2022-11-20T13:42:38;57.80;;;28.17;;
25263;SDS011;13211;51.796;5.808;2022-11-20T13:45:20;55.03;;;27.65;;
25263;SDS011;13211;51.796;5.808;2022-11-20T13:47:49;56.65;;;27.35;;
25263;SDS011;13211;51.796;5.808;2022-11-20T13:50:17;60.38;;;27.85;;
25263;SDS011;13211;51.796;5.808;2022-11-20T13:52:52;61.90;;;27.80;;
25263;SDS011;13211;51.796;5.808;2022-11-20T13:55:31;69.32;;;29.63;;
25263;SDS011;13211;51.796;5.808;2022-11-20T14:01:09;59.08;;;27.42;;
25263;SDS011;13211;51.796;5.808;2022-11-20T14:03:40;70.50;;;30.75;;
25263;SDS011;13211;51.796;5.808;2022-11-20T14:06:29;67.53;;;29.02;;
25263;SDS011;13211;51.796;5.808;2022-11-20T14:08:59;70.85;;;30.55;;
25263;SDS011;13211;51.796;5.808;2022-11-20T14:11:29;73.60;;;30.92;;
25263;SDS011;13211;51.796;5.808;2022-11-20T14:16:32;83.43;;;32.45;;
25263;SDS011;13211;51.796;5.808;2022-11-20T14:21:49;81.18;;;31.02;;
25263;SDS011;13211;51.796;5.808;2022-11-20T14:24:21;86.50;;;33.38;;
25263;SDS011;13211;51.796;5.808;2022-11-20T14:26:49;83.15;;;34.08;;
25263;SDS011;13211;51.796;5.808;2022-11-20T14:29:18;82.57;;;32.95;;
25263;SDS011;13211;51.796;5.808;2022-11-20T14:31:53;102.35;;;36.33;;
25263;SDS011;13211;51.796;5.808;2022-11-20T14:34:23;92.78;;;34.28;;
25263;SDS011;13211;51.796;5.808;2022-11-20T14:36:56;88.88;;;34.70;;
25263;SDS011;13211;51.796;5.808;2022-11-20T14:39:41;91.30;;;34.13;;
25263;SDS011;13211;51.796;5.808;2022-11-20T14:42:16;86.63;;;33.72;;
25263;SDS011;13211;51.796;5.808;2022-11-20T14:44:46;89.68;;;34.10;;
25263;SDS011;13211;51.796;5.808;2022-11-20T14:47:17;87.82;;;34.85;;
25263;SDS011;13211;51.796;5.808;2022-11-20T14:49:45;85.47;;;35.45;;
25263;SDS011;13211;51.796;5.808;2022-11-20T14:52:15;84.55;;;34.15;;
25263;SDS011;13211;51.796;5.808;2022-11-20T14:54:44;83.93;;;32.95;;
25263;SDS011;13211;51.796;5.808;2022-11-20T14:57:22;89.35;;;33.78;;
25263;SDS011;13211;51.796;5.808;2022-11-20T14:59:50;87.95;;;33.45;;
25263;SDS011;13211;51.796;5.808;2022-11-20T15:02:19;88.95;;;35.80;;
25263;SDS011;13211;51.796;5.808;2022-11-20T15:04:51;86.63;;;34.53;;
25263;SDS011;13211;51.796;5.808;2022-11-20T15:07:25;95.30;;;34.38;;
25263;SDS011;13211;51.796;5.808;2022-11-20T15:10:00;79.20;;;33.93;;
25263;SDS011;13211;51.796;5.808;2022-11-20T15:12:29;124.10;;;50.97;;
25263;SDS011;13211;51.796;5.808;2022-11-20T15:14:58;135.82;;;55.50;;
25263;SDS011;13211;51.796;5.808;2022-11-20T15:17:28;143.15;;;56.35;;
25263;SDS011;13211;51.796;5.808;2022-11-20T15:19:55;103.53;;;39.30;;
25263;SDS011;13211;51.796;5.808;2022-11-20T15:22:23;90.88;;;37.53;;
25263;SDS011;13211;51.796;5.808;2022-11-20T15:24:51;96.07;;;37.80;;
25263;SDS011;13211;51.796;5.808;2022-11-20T15:27:19;93.97;;;35.80;;
25263;SDS011;13211;51.796;5.808;2022-11-20T15:29:46;98.57;;;36.97;;
25263;SDS011;13211;51.796;5.808;2022-11-20T15:32:14;104.00;;;38.13;;
25263;SDS011;13211;51.796;5.808;2022-11-20T15:34:41;94.03;;;36.15;;
25263;SDS011;13211;51.796;5.808;2022-11-20T15:37:09;89.85;;;34.47;;
25263;SDS011;13211;51.796;5.808;2022-11-20T15:39:36;102.88;;;38.60;;
25263;SDS011;13211;51.796;5.808;2022-11-20T15:42:04;101.40;;;36.30;;
25263;SDS011;13211;51.796;5.808;2022-11-20T15:44:32;94.78;;;34.05;;
25263;SDS011;13211;51.796;5.808;2022-11-20T15:47:00;103.35;;;35.50;;
25263;SDS011;13211;51.796;5.808;2022-11-20T15:49:30;96.05;;;34.17;;
25263;SDS011;13211;51.796;5.808;2022-11-20T15:51:58;92.80;;;33.65;;
25263;SDS011;13211;51.796;5.808;2022-11-20T15:54:26;83.15;;;33.13;;
25263;SDS011;13211;51.796;5.808;2022-11-20T15:56:53;91.95;;;33.35;;
25263;SDS011;13211;51.796;5.808;2022-11-20T15:59:21;84.28;;;33.35;;
25263;SDS011;13211;51.796;5.808;2022-11-20T16:01:49;87.78;;;31.98;;
25263;SDS011;13211;51.796;5.808;2022-11-20T16:04:17;83.63;;;34.92;;
25263;SDS011;13211;51.796;5.808;2022-11-20T16:06:45;86.75;;;32.53;;
25263;SDS011;13211;51.796;5.808;2022-11-20T16:09:12;81.60;;;33.35;;
25263;SDS011;13211;51.796;5.808;2022-11-20T16:11:40;83.53;;;32.65;;
25263;SDS011;13211;51.796;5.808;2022-11-20T16:14:09;74.93;;;30.65;;
25263;SDS011;13211;51.796;5.808;2022-11-20T16:17:02;76.65;;;28.92;;
25263;SDS011;13211;51.796;5.808;2022-11-20T16:19:31;72.97;;;31.60;;
25263;SDS011;13211;51.796;5.808;2022-11-20T16:21:59;78.70;;;31.92;;
25263;SDS011;13211;51.796;5.808;2022-11-20T16:24:29;75.18;;;28.52;;
25263;SDS011;13211;51.796;5.808;2022-11-20T16:27:00;67.28;;;27.95;;
25263;SDS011;13211;51.796;5.808;2022-11-20T16:29:30;66.78;;;27.80;;
25263;SDS011;13211;51.796;5.808;2022-11-20T16:32:00;77.65;;;29.85;;
25263;SDS011;13211;51.796;5.808;2022-11-20T16:34:29;65.72;;;28.25;;
25263;SDS011;13211;51.796;5.808;2022-11-20T16:36:57;70.03;;;29.58;;
25263;SDS011;13211;51.796;5.808;2022-11-20T16:39:25;73.32;;;30.40;;
25263;SDS011;13211;51.796;5.808;2022-11-20T16:41:53;74.47;;;31.45;;
25263;SDS011;13211;51.796;5.808;2022-11-20T16:44:21;72.15;;;29.50;;
25263;SDS011;13211;51.796;5.808;2022-11-20T16:46:49;77.05;;;30.35;;
25263;SDS011;13211;51.796;5.808;2022-11-20T16:49:17;75.57;;;31.73;;
25263;SDS011;13211;51.796;5.808;2022-11-20T16:51:45;81.82;;;33.13;;
25263;SDS011;13211;51.796;5.808;2022-11-20T16:54:12;87.65;;;31.88;;
25263;SDS011;13211;51.796;5.808;2022-11-20T16:56:46;76.32;;;30.38;;